首页
METAR-TAF:

METAR-TAF

机场 :

烏蘭烏德, 俄罗斯

纬度: 51-50N, 经度: 107-36E, 海拔: 510米

当前天气观测

该预报发布于27分钟前的09:00 UTC
风速8节,风向北转东北,在北转西北东北之间变化
温度 29°C
湿度 29%
气压 1003 hPa
能见度10公里或以上

METAR: UIUU 160900Z 02004MPS 330V050 9999 NSC 29/09 Q1003 R26/CLRD60 NOSIG RMK QFE709/0945

时间: 17:27 (09:27 UTC)

预报

该预报发布于1小时和27分钟前的08:00 UTC
预报有效从16日的 09点(UTC)到 17日的 09点(UTC)
风速10节,风向北转西北,有时为19节阵风
能见度10公里或以上

TAF: UIUU 160800Z 1609/1709 34005G10MPS 9999 NSC TX30/1609Z TN13/1620Z

超过4000个机场的气象观测和天气预报(METAR&TAF报告)。

可查询的气象台以黄色和红色小点在地图上表示。

将鼠标移到小点上方,可查看气象台名称。

然后点击查看天气观测和预报。

如需切换地图:点击带黑十字的绿色按钮放大地图;点击带横线的绿色按钮缩小地图;或者点击绿色箭头查看邻近地区的地图。


METAR-TAF: